createdAt,value
2022-08-26T00:00:21.397Z,9.00
2022-08-26T00:02:49.747Z,8.37
2022-08-26T00:05:18.261Z,9.00
2022-08-26T00:07:47.339Z,8.97
2022-08-26T00:10:16.088Z,8.20
2022-08-26T00:12:46.020Z,8.70
2022-08-26T00:15:17.539Z,8.63
2022-08-26T00:17:48.104Z,9.17
2022-08-26T00:20:20.579Z,8.93
2022-08-26T00:22:49.330Z,9.53
2022-08-26T00:25:18.191Z,8.43
2022-08-26T00:27:47.782Z,8.53
2022-08-26T00:30:24.914Z,8.67
2022-08-26T00:32:57.450Z,8.63
2022-08-26T00:35:28.094Z,8.37
2022-08-26T00:37:57.120Z,8.40
2022-08-26T00:40:32.815Z,8.33
2022-08-26T00:43:02.327Z,8.03
2022-08-26T00:45:44.406Z,8.80
2022-08-26T00:48:18.127Z,9.20
2022-08-26T00:50:52.714Z,8.70
2022-08-26T00:53:26.021Z,9.10
2022-08-26T00:56:02.783Z,9.77
2022-08-26T00:58:33.987Z,9.30
2022-08-26T01:01:03.301Z,9.40
2022-08-26T01:03:36.220Z,9.40
2022-08-26T01:06:05.334Z,8.90
2022-08-26T01:08:41.415Z,8.50
2022-08-26T01:11:10.177Z,9.23
2022-08-26T01:13:39.479Z,9.50
2022-08-26T01:16:12.502Z,9.37
2022-08-26T01:18:45.002Z,8.80
2022-08-26T01:21:21.017Z,8.47
2022-08-26T01:23:57.479Z,8.73
2022-08-26T01:26:29.741Z,9.83
2022-08-26T01:29:01.432Z,9.60
2022-08-26T01:31:36.742Z,9.50
2022-08-26T01:34:12.188Z,8.87
2022-08-26T01:36:41.500Z,8.47
2022-08-26T01:39:12.700Z,9.23
2022-08-26T01:41:44.073Z,9.00
2022-08-26T01:44:21.145Z,9.60
2022-08-26T01:46:51.805Z,9.20
2022-08-26T01:49:21.387Z,9.23
2022-08-26T01:51:54.231Z,9.67
2022-08-26T01:54:24.787Z,9.67
2022-08-26T01:56:53.773Z,9.60
2022-08-26T01:59:24.489Z,9.47
2022-08-26T02:01:53.207Z,9.50
2022-08-26T02:04:27.618Z,10.70
2022-08-26T02:06:57.916Z,9.27
2022-08-26T02:09:29.216Z,9.20
2022-08-26T02:12:01.447Z,9.50
2022-08-26T02:17:07.282Z,9.93
2022-08-26T02:19:41.052Z,9.83
2022-08-26T02:22:16.186Z,9.03
2022-08-26T02:24:52.701Z,9.90
2022-08-26T02:27:24.862Z,9.17
2022-08-26T02:29:58.982Z,9.70
2022-08-26T02:32:27.403Z,9.83
2022-08-26T02:34:55.850Z,10.13
2022-08-26T02:37:24.253Z,9.50
2022-08-26T02:39:55.174Z,9.40
2022-08-26T02:42:23.604Z,9.47
2022-08-26T02:44:53.306Z,8.67
2022-08-26T02:47:21.674Z,9.40
2022-08-26T02:49:53.714Z,10.67
2022-08-26T02:52:22.103Z,10.33
2022-08-26T02:54:50.467Z,10.03
2022-08-26T02:57:20.630Z,10.07
2022-08-26T02:59:50.744Z,9.93
2022-08-26T03:02:19.161Z,9.40
2022-08-26T03:04:58.062Z,10.27
2022-08-26T03:07:30.862Z,10.40
2022-08-26T03:09:59.458Z,11.23
2022-08-26T03:12:29.213Z,10.13
2022-08-26T03:14:58.337Z,9.97
2022-08-26T03:17:26.921Z,10.23
2022-08-26T03:19:57.204Z,9.97
2022-08-26T03:22:27.121Z,10.30
2022-08-26T03:24:55.726Z,10.03
2022-08-26T03:27:24.044Z,10.33
2022-08-26T03:30:11.735Z,10.47
2022-08-26T03:32:41.367Z,10.33
2022-08-26T03:35:10.637Z,10.40
2022-08-26T03:37:39.806Z,10.33
2022-08-26T03:40:11.617Z,10.73
2022-08-26T03:42:41.389Z,10.17
2022-08-26T03:45:16.747Z,10.53
2022-08-26T03:47:45.783Z,11.17
2022-08-26T03:50:22.644Z,10.93
2022-08-26T03:52:51.782Z,10.87
2022-08-26T03:55:23.599Z,10.97
2022-08-26T03:57:52.177Z,11.83
2022-08-26T04:00:22.735Z,11.43
2022-08-26T04:02:53.264Z,11.10
2022-08-26T04:05:24.145Z,10.77
2022-08-26T04:07:53.033Z,10.87
2022-08-26T04:10:28.574Z,10.20
2022-08-26T04:13:05.940Z,11.77
2022-08-26T04:15:35.692Z,11.50
2022-08-26T04:18:04.650Z,11.37
2022-08-26T04:20:33.045Z,10.33
2022-08-26T04:23:01.465Z,9.93
2022-08-26T04:25:30.138Z,11.47
2022-08-26T04:27:58.495Z,10.67
2022-08-26T04:30:26.888Z,10.60
2022-08-26T04:32:56.609Z,10.83
2022-08-26T04:35:26.330Z,10.40
2022-08-26T04:37:56.166Z,10.47
2022-08-26T04:40:27.589Z,10.50
2022-08-26T04:42:56.866Z,10.97
2022-08-26T04:45:26.310Z,10.83
2022-08-26T04:47:58.254Z,10.47
2022-08-26T04:50:27.022Z,10.67
2022-08-26T04:52:56.405Z,10.63
2022-08-26T04:55:39.720Z,10.93
2022-08-26T04:58:11.181Z,11.20
2022-08-26T05:00:40.339Z,11.13
2022-08-26T05:03:10.775Z,11.13
2022-08-26T05:05:41.304Z,11.20
2022-08-26T05:08:11.235Z,10.87
2022-08-26T05:10:43.665Z,11.50
2022-08-26T05:13:15.111Z,11.50
2022-08-26T05:15:45.281Z,12.07
2022-08-26T05:18:17.460Z,11.50
2022-08-26T05:20:51.527Z,10.67
2022-08-26T05:23:23.569Z,11.10
2022-08-26T05:25:58.995Z,11.53
2022-08-26T05:28:29.633Z,10.97
2022-08-26T05:30:58.362Z,11.37
2022-08-26T05:33:28.905Z,10.60
2022-08-26T05:35:57.214Z,12.00
2022-08-26T05:38:25.579Z,11.37
2022-08-26T05:40:58.717Z,10.77
2022-08-26T05:43:27.889Z,11.77
2022-08-26T05:45:56.403Z,12.13
2022-08-26T05:48:25.130Z,10.87
2022-08-26T05:50:55.145Z,12.03
2022-08-26T05:53:26.088Z,11.20
2022-08-26T05:55:56.201Z,10.77
2022-08-26T05:58:25.316Z,11.60
2022-08-26T06:01:03.545Z,12.17
2022-08-26T06:03:34.758Z,12.03
2022-08-26T06:06:07.524Z,11.47
2022-08-26T06:08:37.767Z,11.70
2022-08-26T06:11:10.751Z,11.97
2022-08-26T06:13:47.909Z,11.30
2022-08-26T06:16:19.463Z,12.47
2022-08-26T06:18:49.200Z,12.30
2022-08-26T06:21:21.405Z,12.17
2022-08-26T06:24:10.885Z,11.30
2022-08-26T06:26:42.961Z,12.30
2022-08-26T06:29:15.467Z,12.47
2022-08-26T06:31:54.032Z,12.47
2022-08-26T06:34:29.636Z,12.67
2022-08-26T06:37:03.550Z,12.53
2022-08-26T06:39:32.704Z,13.20
2022-08-26T06:42:03.056Z,12.87
2022-08-26T06:44:32.377Z,14.17
2022-08-26T06:47:00.873Z,13.73
2022-08-26T06:49:29.439Z,12.63
2022-08-26T06:51:59.751Z,14.10
2022-08-26T06:54:30.248Z,12.83
2022-08-26T06:56:59.024Z,13.33
2022-08-26T06:59:27.759Z,13.47
2022-08-26T07:01:56.541Z,14.10
2022-08-26T07:04:25.060Z,14.03
2022-08-26T07:06:57.025Z,13.53
2022-08-26T07:09:33.134Z,14.13
2022-08-26T07:12:01.833Z,14.80
2022-08-26T07:14:31.746Z,13.50
2022-08-26T07:17:01.374Z,14.07
2022-08-26T07:19:31.392Z,14.13
2022-08-26T07:22:01.974Z,14.73
2022-08-26T07:24:32.534Z,14.23
2022-08-26T07:27:02.735Z,15.53
2022-08-26T07:29:32.367Z,14.53
2022-08-26T07:32:00.808Z,14.03
2022-08-26T07:34:29.358Z,14.80
2022-08-26T07:36:58.727Z,14.53
2022-08-26T07:39:27.943Z,14.13
2022-08-26T07:42:01.372Z,15.70
2022-08-26T07:44:32.292Z,15.80
2022-08-26T07:47:00.865Z,15.33
2022-08-26T07:49:29.682Z,15.37
2022-08-26T07:51:58.177Z,16.07
2022-08-26T07:54:27.318Z,15.10
2022-08-26T07:56:57.620Z,14.90
2022-08-26T07:59:26.415Z,15.07
2022-08-26T08:01:54.794Z,15.13
2022-08-26T08:04:26.544Z,14.00
2022-08-26T08:06:55.499Z,17.23
2022-08-26T08:09:24.599Z,16.53
2022-08-26T08:11:54.051Z,14.63
2022-08-26T08:14:23.788Z,14.70
2022-08-26T08:16:55.057Z,13.93
2022-08-26T08:19:24.400Z,14.37
2022-08-26T08:22:17.085Z,24.20
2022-08-26T08:24:49.886Z,15.77
2022-08-26T08:27:23.881Z,13.10
2022-08-26T08:29:55.230Z,13.20
2022-08-26T08:32:24.439Z,12.43
2022-08-26T08:34:52.947Z,13.57
2022-08-26T08:37:21.359Z,13.33
2022-08-26T08:39:50.176Z,12.57
2022-08-26T08:42:39.736Z,13.80
2022-08-26T08:45:15.410Z,12.63
2022-08-26T08:47:54.778Z,13.33
2022-08-26T08:50:28.925Z,12.90
2022-08-26T08:53:15.128Z,13.07
2022-08-26T08:56:00.101Z,13.00
2022-08-26T08:58:50.471Z,14.23
2022-08-26T09:01:31.586Z,13.97
2022-08-26T09:04:23.212Z,12.27
2022-08-26T09:09:31.924Z,12.27
2022-08-26T09:12:02.225Z,12.57
2022-08-26T09:14:32.710Z,12.57
2022-08-26T09:17:09.875Z,12.90
2022-08-26T09:19:44.597Z,12.43
2022-08-26T09:22:29.442Z,13.33
2022-08-26T09:24:57.820Z,12.47
2022-08-26T09:27:46.327Z,12.63
2022-08-26T09:30:34.426Z,12.33
2022-08-26T09:33:10.874Z,11.80
2022-08-26T09:35:43.861Z,12.70
2022-08-26T09:38:26.677Z,11.50
2022-08-26T09:40:59.765Z,12.37
2022-08-26T09:43:29.116Z,12.03
2022-08-26T09:46:15.167Z,12.10
2022-08-26T09:48:45.041Z,11.67
2022-08-26T09:51:30.723Z,11.83
2022-08-26T09:54:02.224Z,11.23
2022-08-26T09:56:34.291Z,10.30
2022-08-26T09:59:03.981Z,11.53
2022-08-26T10:01:40.195Z,11.87
2022-08-26T10:04:14.026Z,10.87
2022-08-26T10:06:46.240Z,11.90
2022-08-26T10:09:19.510Z,10.95
2022-08-26T10:11:53.536Z,10.90
2022-08-26T10:14:27.553Z,11.32
2022-08-26T10:17:03.552Z,11.00
2022-08-26T10:19:57.078Z,11.30
2022-08-26T10:22:33.472Z,11.27
2022-08-26T10:25:04.961Z,10.65
2022-08-26T10:27:51.206Z,11.13
2022-08-26T10:30:25.092Z,11.85
2022-08-26T10:32:58.829Z,10.83
2022-08-26T10:35:29.488Z,12.18
2022-08-26T10:38:03.954Z,11.48
2022-08-26T10:40:46.178Z,11.07
2022-08-26T10:43:23.534Z,11.05
2022-08-26T10:45:59.937Z,11.13
2022-08-26T10:48:37.368Z,11.88
2022-08-26T10:51:08.687Z,11.48
2022-08-26T10:53:51.412Z,11.45
2022-08-26T10:56:38.125Z,10.63
2022-08-26T10:59:16.036Z,9.35
2022-08-26T11:01:52.624Z,9.70
2022-08-26T11:04:40.868Z,9.45
2022-08-26T11:07:41.908Z,9.38
2022-08-26T11:10:28.145Z,8.65
2022-08-26T11:13:00.190Z,9.00
2022-08-26T11:16:10.804Z,9.60
2022-08-26T11:18:46.994Z,9.73
2022-08-26T11:22:06.065Z,8.98
2022-08-26T11:25:07.610Z,9.38
2022-08-26T11:28:05.229Z,9.35
2022-08-26T11:30:57.011Z,9.23
2022-08-26T11:34:00.819Z,8.88
2022-08-26T11:37:05.061Z,8.18
2022-08-26T11:39:54.077Z,9.10
2022-08-26T11:42:34.341Z,9.15
2022-08-26T11:45:20.815Z,8.88
2022-08-26T11:47:49.370Z,8.27
2022-08-26T11:50:21.486Z,8.75
2022-08-26T11:52:55.405Z,9.40
2022-08-26T11:55:25.278Z,8.93
2022-08-26T11:57:57.690Z,9.60
2022-08-26T12:00:31.446Z,8.98
2022-08-26T12:03:07.779Z,8.90
2022-08-26T12:05:44.307Z,8.93
2022-08-26T12:08:16.573Z,8.98
2022-08-26T12:10:46.553Z,8.23
2022-08-26T12:13:24.044Z,9.40
2022-08-26T12:15:57.062Z,9.00
2022-08-26T12:18:28.879Z,8.48
2022-08-26T12:21:00.980Z,8.57
2022-08-26T12:23:46.723Z,8.68
2022-08-26T12:26:24.588Z,9.00
2022-08-26T12:28:58.002Z,7.88
2022-08-26T12:31:35.454Z,9.18
2022-08-26T12:34:07.221Z,9.13
2022-08-26T12:36:50.904Z,9.05
2022-08-26T12:39:28.488Z,9.20
2022-08-26T12:42:00.084Z,9.45
2022-08-26T12:44:54.054Z,8.93
2022-08-26T12:47:42.052Z,9.15
2022-08-26T12:50:20.562Z,8.50
2022-08-26T12:53:01.089Z,9.32
2022-08-26T12:55:41.401Z,8.30
2022-08-26T12:58:24.504Z,8.63
2022-08-26T13:00:55.233Z,9.15
2022-08-26T13:03:44.509Z,9.05
2022-08-26T13:06:18.105Z,8.60
2022-08-26T13:08:48.430Z,8.80
2022-08-26T13:11:21.344Z,9.30
2022-08-26T13:13:53.415Z,8.35
2022-08-26T13:16:23.818Z,7.75
2022-08-26T13:18:55.669Z,8.85
2022-08-26T13:21:26.999Z,8.65
2022-08-26T13:23:55.961Z,8.63
2022-08-26T13:26:24.308Z,8.40
2022-08-26T13:29:01.640Z,9.50
2022-08-26T13:31:32.525Z,8.05
2022-08-26T13:34:02.552Z,9.70
2022-08-26T13:36:31.418Z,9.13
2022-08-26T13:39:00.482Z,8.90
2022-08-26T13:41:29.871Z,8.57
2022-08-26T13:44:00.094Z,8.82
2022-08-26T13:46:29.017Z,7.43
2022-08-26T13:48:58.563Z,6.97
2022-08-26T13:51:28.448Z,6.28
2022-08-26T13:53:57.385Z,6.72
2022-08-26T13:56:29.373Z,5.97
2022-08-26T13:59:01.179Z,5.68
2022-08-26T14:01:31.719Z,5.15
2022-08-26T14:04:00.075Z,4.32
2022-08-26T14:06:28.739Z,4.50
2022-08-26T14:08:57.062Z,5.07
2022-08-26T14:11:25.773Z,4.72
2022-08-26T14:13:54.222Z,5.30
2022-08-26T14:16:31.512Z,5.95
2022-08-26T14:19:01.321Z,5.03
2022-08-26T14:21:32.613Z,4.70
2022-08-26T14:24:01.188Z,5.05
2022-08-26T14:26:30.184Z,5.72
2022-08-26T14:28:59.735Z,6.15
2022-08-26T14:31:31.738Z,6.18
2022-08-26T14:34:04.794Z,5.38
2022-08-26T14:36:33.890Z,6.43
2022-08-26T14:39:06.421Z,6.03
2022-08-26T14:41:37.120Z,4.90
2022-08-26T14:44:09.968Z,5.88
2022-08-26T14:46:46.532Z,6.07
2022-08-26T14:49:16.055Z,5.72
2022-08-26T14:51:44.456Z,6.78
2022-08-26T14:54:13.295Z,6.63
2022-08-26T14:56:48.531Z,7.18
2022-08-26T14:59:20.748Z,7.60
2022-08-26T15:01:50.998Z,6.28
2022-08-26T15:04:19.918Z,7.80
2022-08-26T15:06:48.629Z,6.78
2022-08-26T15:09:17.252Z,6.50
2022-08-26T15:11:46.428Z,6.70
2022-08-26T15:14:19.830Z,7.00
2022-08-26T15:16:51.262Z,6.10
2022-08-26T15:19:20.357Z,7.72
2022-08-26T15:21:48.877Z,7.00
2022-08-26T15:24:21.554Z,7.60
2022-08-26T15:26:50.261Z,7.90
2022-08-26T15:29:18.813Z,7.60
2022-08-26T15:31:49.591Z,8.57
2022-08-26T15:34:18.811Z,7.60
2022-08-26T15:36:49.304Z,7.78
2022-08-26T15:39:18.837Z,8.20
2022-08-26T15:41:47.970Z,6.88
2022-08-26T15:44:18.419Z,7.28
2022-08-26T15:46:50.073Z,7.15
2022-08-26T15:49:19.019Z,7.43
2022-08-26T15:51:50.317Z,6.68
2022-08-26T15:54:21.770Z,6.97
2022-08-26T15:56:53.027Z,7.68
2022-08-26T15:59:23.662Z,6.25
2022-08-26T16:01:53.777Z,7.07
2022-08-26T16:04:22.428Z,6.68
2022-08-26T16:06:52.225Z,7.00
2022-08-26T16:09:24.256Z,7.35
2022-08-26T16:11:53.220Z,7.43
2022-08-26T16:14:21.886Z,6.20
2022-08-26T16:16:50.516Z,6.68
2022-08-26T16:19:21.044Z,6.50
2022-08-26T16:21:50.777Z,6.10
2022-08-26T16:24:24.845Z,6.03
2022-08-26T16:26:55.998Z,5.60
2022-08-26T16:29:24.588Z,5.47
2022-08-26T16:31:54.540Z,5.47
2022-08-26T16:34:24.559Z,5.55
2022-08-26T16:36:53.223Z,5.82
2022-08-26T16:39:21.614Z,5.35
2022-08-26T16:41:50.503Z,6.20
2022-08-26T16:44:19.398Z,5.93
2022-08-26T16:46:48.040Z,5.45
2022-08-26T16:49:16.520Z,5.05
2022-08-26T16:51:46.819Z,4.30
2022-08-26T16:54:15.243Z,4.40
2022-08-26T16:56:43.663Z,4.70
2022-08-26T16:59:12.747Z,4.87
2022-08-26T17:01:41.311Z,5.13
2022-08-26T17:04:09.749Z,4.33
2022-08-26T17:06:38.300Z,4.90
2022-08-26T17:09:08.212Z,4.77
2022-08-26T17:11:36.951Z,5.13
2022-08-26T17:14:05.803Z,5.20
2022-08-26T17:16:34.245Z,5.13
2022-08-26T17:19:04.533Z,5.10
2022-08-26T17:21:34.361Z,5.20
2022-08-26T17:24:03.216Z,4.93
2022-08-26T17:26:33.350Z,4.53
2022-08-26T17:29:01.828Z,5.27
2022-08-26T17:31:30.213Z,4.43
2022-08-26T17:33:58.886Z,5.67
2022-08-26T17:36:28.498Z,5.37
2022-08-26T17:38:58.589Z,5.87
2022-08-26T17:41:28.004Z,5.17
2022-08-26T17:43:57.820Z,4.90
2022-08-26T17:46:26.657Z,5.17
2022-08-26T17:48:55.411Z,5.33
2022-08-26T17:51:24.017Z,5.10
2022-08-26T17:53:53.118Z,4.90
2022-08-26T17:56:25.510Z,5.50
2022-08-26T17:58:56.477Z,4.83
2022-08-26T18:01:28.724Z,5.63
2022-08-26T18:04:00.474Z,5.53
2022-08-26T18:06:31.389Z,5.27
2022-08-26T18:09:00.703Z,5.70
2022-08-26T18:11:31.970Z,5.47
2022-08-26T18:14:00.726Z,5.57
2022-08-26T18:16:31.688Z,6.10
2022-08-26T18:19:00.938Z,5.10
2022-08-26T18:21:29.608Z,5.43
2022-08-26T18:23:58.510Z,5.50
2022-08-26T18:26:31.190Z,5.10
2022-08-26T18:28:59.911Z,6.37
2022-08-26T18:31:30.731Z,5.93
2022-08-26T18:34:01.325Z,5.43
2022-08-26T18:36:33.467Z,5.87
2022-08-26T18:39:03.899Z,6.60
2022-08-26T18:41:35.635Z,5.80
2022-08-26T18:44:04.704Z,5.90
2022-08-26T18:46:34.612Z,7.60
2022-08-26T18:49:03.036Z,7.10
2022-08-26T18:51:34.121Z,5.87
2022-08-26T18:54:06.338Z,6.60
2022-08-26T18:56:36.571Z,7.17
2022-08-26T18:59:07.252Z,6.97
2022-08-26T19:01:40.497Z,7.23
2022-08-26T19:04:14.774Z,6.57
2022-08-26T19:06:48.331Z,7.37
2022-08-26T19:09:17.929Z,7.70
2022-08-26T19:11:47.199Z,8.23
2022-08-26T19:14:18.387Z,8.00
2022-08-26T19:16:50.644Z,8.17
2022-08-26T19:19:19.924Z,8.07
2022-08-26T19:21:48.777Z,8.10
2022-08-26T19:24:19.131Z,7.97
2022-08-26T19:26:55.196Z,7.93
2022-08-26T19:29:30.264Z,7.17
2022-08-26T19:32:00.376Z,8.97
2022-08-26T19:34:29.569Z,8.83
2022-08-26T19:36:58.547Z,8.20
2022-08-26T19:39:27.780Z,7.97
2022-08-26T19:41:56.250Z,8.33
2022-08-26T19:44:42.244Z,8.07
2022-08-26T19:47:13.356Z,8.13
2022-08-26T19:49:41.739Z,8.70
2022-08-26T19:52:11.133Z,8.87
2022-08-26T19:54:40.431Z,8.43
2022-08-26T19:57:08.834Z,7.83
2022-08-26T19:59:37.410Z,7.93
2022-08-26T20:02:10.538Z,9.00
2022-08-26T20:04:41.829Z,8.87
2022-08-26T20:07:14.066Z,9.10
2022-08-26T20:09:45.018Z,8.97
2022-08-26T20:12:13.709Z,9.33
2022-08-26T20:14:42.866Z,9.37
2022-08-26T20:17:11.275Z,8.60
2022-08-26T20:19:58.511Z,8.57
2022-08-26T20:22:26.888Z,9.57
2022-08-26T20:24:55.421Z,8.03
2022-08-26T20:27:27.695Z,8.00
2022-08-26T20:30:09.620Z,8.10
2022-08-26T20:32:38.696Z,7.60
2022-08-26T20:35:14.328Z,8.73
2022-08-26T20:37:43.292Z,8.30
2022-08-26T20:40:14.022Z,8.77
2022-08-26T20:42:42.565Z,8.43
2022-08-26T20:45:11.887Z,8.53
2022-08-26T20:47:40.321Z,9.00
2022-08-26T20:50:10.929Z,9.93
2022-08-26T20:52:39.341Z,9.07
2022-08-26T20:55:08.809Z,8.90
2022-08-26T20:57:37.339Z,9.60
2022-08-26T21:00:07.546Z,9.93
2022-08-26T21:02:35.909Z,9.60
2022-08-26T21:05:04.602Z,8.93
2022-08-26T21:07:34.323Z,8.67
2022-08-26T21:10:03.876Z,9.20
2022-08-26T21:12:32.238Z,8.80
2022-08-26T21:15:00.661Z,9.23
2022-08-26T21:17:29.298Z,9.67
2022-08-26T21:19:57.585Z,8.53
2022-08-26T21:22:26.508Z,8.80
2022-08-26T21:24:56.239Z,9.00
2022-08-26T21:27:26.387Z,9.17
2022-08-26T21:29:55.383Z,9.50
2022-08-26T21:32:23.864Z,9.50
2022-08-26T21:34:55.981Z,9.93
2022-08-26T21:37:25.566Z,9.43
2022-08-26T21:39:57.115Z,10.10
2022-08-26T21:42:27.227Z,9.60
2022-08-26T21:44:55.740Z,9.87
2022-08-26T21:47:25.463Z,9.63
2022-08-26T21:49:54.310Z,9.27
2022-08-26T21:52:22.721Z,10.17
2022-08-26T21:54:51.143Z,9.20
2022-08-26T21:57:22.281Z,9.93
2022-08-26T21:59:50.567Z,9.17
2022-08-26T22:02:19.065Z,8.73
2022-08-26T22:04:49.016Z,9.30
2022-08-26T22:07:19.124Z,9.77
2022-08-26T22:09:47.931Z,9.10
2022-08-26T22:12:18.181Z,10.17
2022-08-26T22:14:48.114Z,9.57
2022-08-26T22:17:16.947Z,10.50
2022-08-26T22:19:46.432Z,9.27
2022-08-26T22:22:16.230Z,9.03
2022-08-26T22:24:44.668Z,8.63
2022-08-26T22:27:14.325Z,9.70
2022-08-26T22:29:42.675Z,9.73
2022-08-26T22:32:12.387Z,9.47
2022-08-26T22:34:41.915Z,9.90
2022-08-26T22:37:10.224Z,9.00
2022-08-26T22:39:38.855Z,8.40
2022-08-26T22:42:07.496Z,8.60
2022-08-26T22:44:37.484Z,9.67
2022-08-26T22:47:06.244Z,9.90
2022-08-26T22:49:35.979Z,9.93
2022-08-26T22:52:04.867Z,9.30
2022-08-26T22:54:33.602Z,9.50
2022-08-26T22:57:02.415Z,9.83
2022-08-26T22:59:30.728Z,10.17
2022-08-26T23:01:59.136Z,9.50
2022-08-26T23:04:27.512Z,9.50
2022-08-26T23:06:57.230Z,9.30
2022-08-26T23:09:25.632Z,8.87
2022-08-26T23:11:55.927Z,9.83
2022-08-26T23:14:25.826Z,9.30
2022-08-26T23:16:54.701Z,8.70
2022-08-26T23:19:24.373Z,8.13
2022-08-26T23:21:52.895Z,8.23
2022-08-26T23:24:22.593Z,8.87
2022-08-26T23:26:51.036Z,8.83
2022-08-26T23:29:19.412Z,9.20
2022-08-26T23:31:47.740Z,8.33
2022-08-26T23:34:33.452Z,8.87
2022-08-26T23:37:02.010Z,8.73
2022-08-26T23:39:34.967Z,8.50
2022-08-26T23:42:03.466Z,8.87
2022-08-26T23:44:32.214Z,8.80
2022-08-26T23:47:01.028Z,9.27
2022-08-26T23:49:30.390Z,10.23
2022-08-26T23:52:16.820Z,9.17
2022-08-26T23:54:48.564Z,8.97
2022-08-26T23:57:19.227Z,8.67
2022-08-26T23:59:49.040Z,10.13
